createdAt,value
2023-03-17T00:01:19.821Z,8.11
2023-03-17T00:06:31.966Z,8.00
2023-03-17T00:11:24.334Z,7.44
2023-03-17T00:16:20.127Z,7.81
2023-03-17T00:21:15.120Z,7.16
2023-03-17T00:26:07.303Z,7.77
2023-03-17T00:31:01.193Z,6.12
2023-03-17T00:35:53.512Z,7.78
2023-03-17T00:45:37.696Z,6.60
2023-03-17T00:50:29.735Z,6.63
2023-03-17T00:55:23.064Z,6.53
2023-03-17T01:00:23.099Z,7.43
2023-03-17T01:05:16.193Z,6.63
2023-03-17T01:10:14.261Z,7.50
2023-03-17T01:15:07.060Z,6.51
2023-03-17T01:19:59.404Z,7.53
2023-03-17T01:24:51.460Z,6.88
2023-03-17T01:29:43.151Z,6.72
2023-03-17T01:34:35.115Z,6.28
2023-03-17T01:39:27.508Z,5.40
2023-03-17T01:44:19.335Z,5.38
2023-03-17T01:49:28.301Z,6.33
2023-03-17T01:54:40.010Z,6.55
2023-03-17T01:59:36.429Z,6.05
2023-03-17T02:04:29.028Z,6.28
2023-03-17T02:09:21.228Z,7.14
2023-03-17T02:14:13.468Z,7.00
2023-03-17T02:19:51.276Z,7.03
2023-03-17T02:24:51.721Z,6.99
2023-03-17T02:30:07.539Z,6.58
2023-03-17T02:35:24.800Z,7.04
2023-03-17T02:40:19.397Z,6.60
2023-03-17T02:45:17.788Z,6.90
2023-03-17T02:50:23.034Z,6.38
2023-03-17T02:55:15.492Z,6.45
2023-03-17T03:00:10.509Z,6.27
2023-03-17T03:05:13.729Z,6.77
2023-03-17T03:10:06.180Z,6.66
2023-03-17T03:15:11.749Z,6.24
2023-03-17T03:27:02.260Z,6.28
2023-03-17T03:31:53.965Z,5.98
2023-03-17T03:36:51.870Z,6.53
2023-03-17T03:42:23.047Z,6.33
2023-03-17T03:47:19.818Z,6.33
2023-03-17T03:52:25.915Z,5.39
2023-03-17T03:57:23.905Z,5.08
2023-03-17T04:02:19.419Z,6.15
2023-03-17T04:07:21.476Z,6.39
2023-03-17T04:13:00.504Z,6.28
2023-03-17T04:17:58.059Z,6.56
2023-03-17T04:29:08.723Z,6.42
2023-03-17T04:34:30.877Z,6.07
2023-03-17T04:39:30.779Z,5.84
2023-03-17T04:50:37.746Z,6.23
2023-03-17T04:56:41.637Z,6.20
2023-03-17T05:01:39.086Z,5.74
2023-03-17T05:06:36.435Z,5.25
2023-03-17T05:11:37.124Z,5.52
2023-03-17T05:16:28.798Z,5.80
2023-03-17T05:21:26.233Z,6.38
2023-03-17T05:26:51.627Z,6.49
2023-03-17T05:31:52.134Z,6.38
2023-03-17T05:37:46.653Z,6.48
2023-03-17T05:48:58.414Z,6.10
2023-03-17T05:54:04.377Z,6.29
2023-03-17T05:59:19.204Z,6.13
2023-03-17T06:04:22.998Z,6.46
2023-03-17T06:10:06.560Z,6.10
2023-03-17T06:15:11.266Z,6.46
2023-03-17T06:20:31.315Z,7.07
2023-03-17T06:25:31.265Z,5.98
2023-03-17T06:36:14.524Z,7.76
2023-03-17T06:48:25.934Z,8.05
2023-03-17T06:54:54.107Z,8.14
2023-03-17T07:00:36.536Z,7.98
2023-03-17T07:06:18.234Z,8.61
2023-03-17T07:17:34.148Z,9.75
2023-03-17T07:28:43.778Z,10.15
2023-03-17T07:34:28.438Z,11.32
2023-03-17T07:45:54.411Z,11.45
2023-03-17T07:56:49.434Z,10.28
2023-03-17T08:02:08.874Z,12.68
2023-03-17T08:07:30.640Z,12.87
2023-03-17T08:13:05.148Z,11.72
2023-03-17T08:19:00.495Z,12.23
2023-03-17T08:29:41.464Z,12.02
2023-03-17T08:35:15.143Z,13.59
2023-03-17T08:42:10.534Z,14.48
2023-03-17T08:46:55.711Z,15.85
2023-03-17T08:53:04.032Z,15.42
2023-03-17T08:59:12.143Z,15.24
2023-03-17T09:10:44.410Z,14.49
2023-03-17T09:16:45.332Z,13.91
2023-03-17T09:21:58.725Z,13.43
2023-03-17T09:28:01.262Z,14.35
2023-03-17T09:33:30.588Z,15.02
2023-03-17T09:39:28.458Z,14.89
2023-03-17T09:50:16.913Z,14.09
2023-03-17T09:56:02.338Z,15.12
2023-03-17T10:02:11.020Z,15.77
2023-03-17T10:08:27.333Z,14.27
2023-03-17T10:27:42.449Z,15.71
2023-03-17T10:33:29.650Z,15.73
2023-03-17T10:45:51.089Z,15.46
2023-03-17T11:15:27.075Z,15.08
2023-03-17T11:21:14.485Z,15.57
2023-03-17T11:27:27.461Z,15.78
2023-03-17T11:39:18.217Z,15.48
2023-03-17T11:52:15.761Z,16.70
2023-03-17T11:57:21.416Z,16.87
2023-03-17T12:21:03.316Z,17.59
2023-03-17T12:27:08.923Z,17.05
2023-03-17T12:33:49.375Z,17.39
2023-03-17T12:39:37.815Z,17.47
2023-03-17T12:46:14.916Z,17.77
2023-03-17T13:03:27.490Z,16.86
2023-03-17T13:16:02.998Z,17.16
2023-03-17T13:45:47.242Z,17.15
2023-03-17T13:59:10.930Z,17.30
2023-03-17T14:05:06.353Z,17.33
2023-03-17T14:11:10.030Z,17.19
2023-03-17T14:28:44.653Z,16.40
2023-03-17T14:34:27.790Z,16.68
2023-03-17T14:40:21.355Z,16.22
2023-03-17T14:53:17.895Z,15.69
2023-03-17T15:04:16.599Z,15.38
2023-03-17T15:15:48.336Z,14.88
2023-03-17T15:21:00.107Z,15.20
2023-03-17T15:26:33.715Z,16.02
2023-03-17T15:31:32.091Z,16.05
2023-03-17T15:36:35.140Z,16.07
2023-03-17T15:41:36.011Z,15.22
2023-03-17T15:46:36.154Z,15.75
2023-03-17T15:52:21.743Z,16.12
2023-03-17T15:57:30.581Z,15.36
2023-03-17T16:13:36.457Z,15.55
2023-03-17T16:19:02.427Z,15.44
2023-03-17T16:24:08.478Z,15.14
2023-03-17T16:29:44.362Z,14.60
2023-03-17T16:34:42.604Z,14.74
2023-03-17T16:39:57.457Z,13.65
2023-03-17T16:45:14.617Z,12.71
2023-03-17T16:50:35.191Z,12.84
2023-03-17T16:56:11.453Z,10.33
2023-03-17T17:01:36.714Z,12.39
2023-03-17T17:18:43.251Z,12.10
2023-03-17T17:23:40.561Z,12.60
2023-03-17T17:29:02.534Z,13.26
2023-03-17T17:52:29.082Z,13.23
2023-03-17T18:08:04.162Z,12.31
2023-03-17T18:13:09.625Z,12.31
2023-03-17T18:19:02.278Z,12.78
2023-03-17T18:24:17.454Z,11.87
2023-03-17T18:29:25.273Z,12.97
2023-03-17T18:34:52.445Z,12.32
2023-03-17T18:46:04.161Z,12.86
2023-03-17T18:51:49.682Z,12.48
2023-03-17T19:02:27.645Z,12.65
2023-03-17T19:18:46.754Z,12.78
2023-03-17T19:24:23.776Z,12.82
2023-03-17T19:40:52.859Z,12.79
2023-03-17T19:46:19.600Z,11.98
2023-03-17T19:58:12.307Z,10.85
2023-03-17T20:16:02.548Z,12.13
2023-03-17T20:27:41.693Z,11.62
2023-03-17T20:39:27.407Z,9.62
2023-03-17T20:51:48.698Z,11.06
2023-03-17T20:57:11.492Z,11.05
2023-03-17T21:03:00.922Z,10.14
2023-03-17T21:13:13.372Z,10.71
2023-03-17T21:18:45.069Z,11.03
2023-03-17T21:24:16.575Z,10.45
2023-03-17T21:29:38.905Z,11.01
2023-03-17T21:34:41.166Z,10.52
2023-03-17T21:39:48.597Z,10.39
2023-03-17T22:01:38.919Z,10.40
2023-03-17T22:06:59.903Z,10.38
2023-03-17T22:12:00.485Z,10.31
2023-03-17T22:17:04.985Z,10.30
2023-03-17T22:22:53.211Z,10.64
2023-03-17T22:28:23.319Z,10.72
2023-03-17T22:33:27.261Z,9.72
2023-03-17T22:39:25.197Z,9.75
